Time;durP1;ratioP1;P1;durP2;ratioP2;P2;SDS_P1;SDS_P2;PMS_P1;PMS_P2;Temp;Humidity;BMP_temperature;BMP_pressure;BME280_temperature;BME280_humidity;BME280_pressure;Samples;Min_cycle;Max_cycle;Signal;HPM_P1;HPM_P2
2023/01/23 00:02:05;;;;;;;9.43;8.43;;;2.70;99.90;;;;;;5130994;27;20233;-73
2023/01/23 00:04:32;;;;;;;11.33;9.30;;;2.70;99.90;;;;;;5131640;27;20297;-73
2023/01/23 00:07:02;;;;;;;10.77;8.93;;;2.70;99.90;;;;;;5130395;27;20347;-73
2023/01/23 00:09:29;;;;;;;9.60;8.70;;;2.70;99.90;;;;;;5130931;27;20201;-75
2023/01/23 00:11:56;;;;;;;10.67;9.43;;;2.70;99.90;;;;;;5130861;27;20284;-74
2023/01/23 00:14:23;;;;;;;10.37;9.23;;;2.70;99.90;;;;;;5130865;27;20280;-73
2023/01/23 00:16:49;;;;;;;11.37;9.80;;;2.70;99.90;;;;;;5165041;27;20291;-74
2023/01/23 00:19:17;;;;;;;10.93;9.27;;;2.70;99.90;;;;;;5172133;27;20689;-74
2023/01/23 00:21:44;;;;;;;9.93;8.87;;;2.70;99.90;;;;;;5169446;27;20262;-74
2023/01/23 00:24:12;;;;;;;9.90;8.90;;;2.70;99.90;;;;;;5150602;27;20284;-74
2023/01/23 00:26:39;;;;;;;10.30;9.20;;;2.70;99.90;;;;;;5151391;27;20330;-75
2023/01/23 00:29:06;;;;;;;10.60;9.17;;;2.70;99.90;;;;;;5151880;27;20211;-76
2023/01/23 00:31:35;;;;;;;12.70;9.70;;;2.70;99.90;;;;;;5144277;27;20290;-77
2023/01/23 00:34:05;;;;;;;11.43;9.47;;;2.70;99.90;;;;;;5130515;27;20221;-77
2023/01/23 00:36:34;;;;;;;11.17;9.00;;;2.70;99.90;;;;;;5130706;27;20233;-76
2023/01/23 00:39:01;;;;;;;12.07;9.63;;;2.70;99.90;;;;;;5130316;27;20292;-76
2023/01/23 00:41:29;;;;;;;11.93;10.00;;;2.70;99.90;;;;;;5150529;27;20202;-76
2023/01/23 00:43:56;;;;;;;12.73;10.27;;;2.70;99.90;;;;;;5150832;27;20208;-76
2023/01/23 00:46:23;;;;;;;11.80;9.73;;;2.70;99.90;;;;;;5156840;27;20204;-76
2023/01/23 00:48:50;;;;;;;11.33;9.87;;;2.60;99.90;;;;;;5171708;27;20597;-76
2023/01/23 00:51:17;;;;;;;12.47;9.77;;;2.60;99.90;;;;;;5162648;27;20203;-76
2023/01/23 00:53:44;;;;;;;13.10;10.07;;;2.60;99.90;;;;;;5139163;27;20740;-76
2023/01/23 00:56:11;;;;;;;11.17;9.63;;;2.70;99.90;;;;;;5147041;27;20232;-74
2023/01/23 00:58:40;;;;;;;11.13;9.37;;;2.60;99.90;;;;;;5149447;27;20233;-74
2023/01/23 01:01:08;;;;;;;12.33;9.33;;;2.60;99.90;;;;;;5148640;27;20612;-74
2023/01/23 01:03:35;;;;;;;11.70;9.90;;;2.60;99.90;;;;;;5128978;27;20292;-74
2023/01/23 01:06:03;;;;;;;10.87;9.07;;;2.60;99.90;;;;;;5129910;27;20297;-74
2023/01/23 01:08:30;;;;;;;11.07;9.70;;;2.70;99.90;;;;;;5129669;27;20334;-74
2023/01/23 01:10:57;;;;;;;13.30;10.60;;;2.60;99.90;;;;;;5129867;27;20297;-73
2023/01/23 01:13:25;;;;;;;11.23;9.40;;;2.70;99.90;;;;;;5129471;27;20292;-74
2023/01/23 01:15:54;;;;;;;11.47;9.50;;;2.70;99.90;;;;;;5129678;27;20296;-74
2023/01/23 01:18:22;;;;;;;11.53;9.30;;;2.70;99.90;;;;;;5129557;27;20232;-74
2023/01/23 01:20:49;;;;;;;11.97;9.50;;;2.70;99.90;;;;;;5129997;27;20228;-74
2023/01/23 01:23:17;;;;;;;11.97;9.73;;;2.60;99.90;;;;;;5132392;27;20292;-73
2023/01/23 01:25:43;;;;;;;11.60;9.93;;;2.60;99.90;;;;;;5129139;27;20210;-73
2023/01/23 01:28:10;;;;;;;11.30;9.67;;;2.70;99.90;;;;;;5129003;27;20786;-74
2023/01/23 01:30:38;;;;;;;12.47;10.17;;;2.70;99.90;;;;;;5129073;27;20576;-74
2023/01/23 01:33:07;;;;;;;12.67;10.13;;;2.70;99.90;;;;;;5146696;27;20197;-74
2023/01/23 01:35:34;;;;;;;12.90;9.77;;;2.70;99.90;;;;;;5149609;27;20619;-74
2023/01/23 01:38:01;;;;;;;12.93;10.27;;;2.70;99.90;;;;;;5149765;27;20739;-74
2023/01/23 01:40:31;;;;;;;11.53;10.03;;;2.60;99.90;;;;;;5150256;27;20632;-74
2023/01/23 01:43:00;;;;;;;12.70;9.97;;;2.60;99.90;;;;;;5149457;27;20281;-73
2023/01/23 01:46:05;;;;;;;13.47;9.93;;;2.60;99.90;;;;;;5149828;27;20200;-74
2023/01/23 01:48:36;;;;;;;13.00;9.93;;;2.70;99.90;;;;;;5145115;27;20236;-73
2023/01/23 01:51:08;;;;;;;12.67;10.27;;;2.70;99.90;;;;;;5144338;27;20301;-74
2023/01/23 01:53:36;;;;;;;11.80;10.60;;;2.70;99.90;;;;;;5149482;27;20193;-73
2023/01/23 01:56:04;;;;;;;13.67;10.63;;;2.70;99.90;;;;;;5131364;27;20309;-73
2023/01/23 01:58:31;;;;;;;12.67;9.97;;;2.70;99.90;;;;;;5128524;27;20312;-73
2023/01/23 02:00:58;;;;;;;10.93;9.70;;;2.70;99.90;;;;;;5129296;27;20205;-73
2023/01/23 02:03:26;;;;;;;14.30;9.87;;;2.70;99.90;;;;;;5128660;27;20259;-73
2023/01/23 02:05:54;;;;;;;11.47;9.97;;;2.70;99.90;;;;;;5128835;27;20288;-73
2023/01/23 02:08:27;;;;;;;12.97;9.80;;;2.70;99.90;;;;;;5137537;27;20316;-73
2023/01/23 02:10:54;;;;;;;11.93;10.03;;;2.70;99.90;;;;;;5149074;27;20625;-73
2023/01/23 02:13:24;;;;;;;13.03;10.27;;;2.70;99.90;;;;;;5149198;27;20817;-73
2023/01/23 02:15:52;;;;;;;13.07;10.10;;;2.70;99.90;;;;;;5133695;27;20623;-73
2023/01/23 02:18:20;;;;;;;12.57;10.33;;;2.70;99.90;;;;;;5169690;27;20236;-73
2023/01/23 02:20:48;;;;;;;14.10;10.47;;;2.70;99.90;;;;;;5170332;27;20213;-73
2023/01/23 02:23:25;;;;;;;12.90;10.20;;;2.70;99.90;;;;;;5163912;27;20280;-73
2023/01/23 02:25:58;;;;;;;13.13;10.53;;;2.70;99.90;;;;;;5169482;27;20244;-73
2023/01/23 02:28:38;;;;;;;13.57;10.90;;;2.60;99.90;;;;;;5170233;27;20212;-74
2023/01/23 02:31:05;;;;;;;13.40;11.07;;;2.70;99.90;;;;;;5170424;27;20184;-74
2023/01/23 02:33:47;;;;;;;13.07;10.60;;;2.70;99.90;;;;;;5144635;27;20657;-75
2023/01/23 02:36:14;;;;;;;13.97;10.77;;;2.70;99.90;;;;;;5149494;27;20327;-75
2023/01/23 02:38:49;;;;;;;15.33;11.27;;;2.70;99.90;;;;;;5149382;27;20236;-75
2023/01/23 02:41:20;;;;;;;12.93;9.57;;;2.70;99.90;;;;;;5148662;27;20189;-75
2023/01/23 02:43:48;;;;;;;12.63;10.63;;;2.70;99.90;;;;;;5149602;27;20197;-75
2023/01/23 02:46:17;;;;;;;11.57;9.83;;;2.70;99.90;;;;;;5155230;27;20302;-75
2023/01/23 02:48:46;;;;;;;13.40;10.27;;;2.70;99.90;;;;;;5134284;27;21046;-75
2023/01/23 02:51:13;;;;;;;13.87;10.97;;;2.70;99.90;;;;;;5128685;27;20204;-74
2023/01/23 02:53:41;;;;;;;14.77;11.27;;;2.70;99.90;;;;;;5128087;28;20208;-75
2023/01/23 02:56:08;;;;;;;13.50;10.93;;;2.70;99.90;;;;;;5132085;27;20290;-74
2023/01/23 03:01:21;;;;;;;15.40;10.93;;;2.60;99.90;;;;;;5128110;28;20185;-74
2023/01/23 03:03:50;;;;;;;11.83;10.57;;;2.70;99.90;;;;;;5131564;27;20205;-74
2023/01/23 03:06:17;;;;;;;12.43;10.50;;;2.70;99.90;;;;;;5128484;27;20208;-74
2023/01/23 03:08:48;;;;;;;15.00;11.27;;;2.70;99.90;;;;;;5128416;28;20549;-74
2023/01/23 03:11:17;;;;;;;12.37;10.23;;;2.70;99.90;;;;;;5127563;28;20219;-74
2023/01/23 03:13:45;;;;;;;14.47;10.80;;;2.70;99.90;;;;;;5128112;27;20241;-74
2023/01/23 03:16:12;;;;;;;13.17;11.13;;;2.70;99.90;;;;;;5138703;27;20295;-74
2023/01/23 03:18:39;;;;;;;12.87;10.70;;;2.70;99.90;;;;;;5169073;27;20633;-74
2023/01/23 03:21:07;;;;;;;13.73;10.63;;;2.70;99.90;;;;;;5169630;27;20246;-73
2023/01/23 03:23:35;;;;;;;14.47;11.20;;;2.80;99.90;;;;;;5150572;27;20204;-70
2023/01/23 03:26:02;;;;;;;14.47;10.97;;;2.70;99.90;;;;;;5131252;27;20661;-73
2023/01/23 03:31:15;;;;;;;11.90;10.10;;;2.70;99.90;;;;;;5148360;27;20425;-73
2023/01/23 03:33:43;;;;;;;13.40;10.67;;;2.70;99.90;;;;;;5143946;27;20648;-73
2023/01/23 03:36:11;;;;;;;14.77;10.60;;;2.80;99.90;;;;;;5127138;27;20300;-73
2023/01/23 03:38:38;;;;;;;12.93;10.47;;;2.70;99.90;;;;;;5127213;27;20212;-73
2023/01/23 03:43:49;;;;;;;12.40;10.37;;;2.70;99.90;;;;;;5130135;27;20240;-73
2023/01/23 03:46:17;;;;;;;13.73;10.87;;;2.70;99.90;;;;;;5138733;27;20231;-72
2023/01/23 03:48:44;;;;;;;12.93;10.10;;;2.70;99.90;;;;;;5157630;27;20315;-73
2023/01/23 03:51:11;;;;;;;12.63;10.03;;;2.70;99.90;;;;;;5147402;27;20209;-73
2023/01/23 03:53:38;;;;;;;11.80;10.23;;;2.70;99.90;;;;;;5147145;27;20288;-73
2023/01/23 03:56:06;;;;;;;13.93;10.80;;;2.70;99.90;;;;;;5139444;27;20226;-73
2023/01/23 03:58:33;;;;;;;13.17;10.83;;;2.70;99.90;;;;;;5126345;27;20250;-73
2023/01/23 04:01:02;;;;;;;15.97;11.73;;;2.70;99.90;;;;;;5132442;27;20229;-73
2023/01/23 04:03:30;;;;;;;14.00;10.77;;;2.70;99.90;;;;;;5150431;27;20249;-72
2023/01/23 04:05:57;;;;;;;12.97;10.63;;;2.70;99.90;;;;;;5130719;27;20288;-73
2023/01/23 04:08:25;;;;;;;13.53;10.53;;;2.70;99.90;;;;;;5129702;27;20312;-73
2023/01/23 04:11:00;;;;;;;13.73;10.80;;;2.70;99.90;;;;;;5130787;27;20305;-73
2023/01/23 04:13:26;;;;;;;13.33;11.03;;;2.70;99.90;;;;;;5130454;27;20288;-73
2023/01/23 04:15:53;;;;;;;14.37;10.80;;;2.70;99.90;;;;;;5135922;27;20292;-73
2023/01/23 04:18:20;;;;;;;13.97;10.27;;;2.70;99.90;;;;;;5172050;27;20250;-73
2023/01/23 04:20:49;;;;;;;14.00;11.10;;;2.70;99.90;;;;;;5172405;27;20311;-73
2023/01/23 04:23:16;;;;;;;12.60;10.70;;;2.70;99.90;;;;;;5172258;27;20288;-73
2023/01/23 04:25:43;;;;;;;14.97;11.03;;;2.70;99.90;;;;;;5158013;27;20244;-72
2023/01/23 04:28:09;;;;;;;13.57;10.53;;;2.70;99.90;;;;;;5151392;27;20239;-72
2023/01/23 04:30:36;;;;;;;12.77;10.67;;;2.70;99.90;;;;;;5151331;27;20303;-72
2023/01/23 04:33:03;;;;;;;13.70;10.87;;;2.70;99.90;;;;;;5150848;27;20287;-72
2023/01/23 04:35:30;;;;;;;13.80;11.23;;;2.70;99.90;;;;;;5150058;27;20287;-72
2023/01/23 04:37:59;;;;;;;14.90;11.47;;;2.70;99.90;;;;;;5135497;27;20203;-72
2023/01/23 04:40:26;;;;;;;15.10;11.30;;;2.70;99.90;;;;;;5139797;27;20217;-72
2023/01/23 04:42:53;;;;;;;13.17;11.30;;;2.70;99.90;;;;;;5130591;27;20229;-72
2023/01/23 04:45:20;;;;;;;14.20;10.80;;;2.70;99.90;;;;;;5130205;27;20201;-72
2023/01/23 04:47:46;;;;;;;14.10;10.80;;;2.70;99.90;;;;;;5167827;27;20315;-72
2023/01/23 04:50:13;;;;;;;12.93;10.63;;;2.70;99.90;;;;;;5171573;27;20219;-72
2023/01/23 04:52:40;;;;;;;16.37;11.50;;;2.70;99.90;;;;;;5171373;27;20286;-72
2023/01/23 04:55:10;;;;;;;13.20;10.40;;;2.70;99.90;;;;;;5171284;27;20255;-72
2023/01/23 04:57:37;;;;;;;11.87;10.53;;;2.70;99.90;;;;;;5142888;27;20232;-72
2023/01/23 05:00:04;;;;;;;16.03;12.07;;;2.70;99.90;;;;;;5150874;27;20303;-72
2023/01/23 05:02:31;;;;;;;14.33;12.00;;;2.70;99.90;;;;;;5150009;27;20642;-72
2023/01/23 05:04:58;;;;;;;14.90;11.83;;;2.70;99.90;;;;;;5150302;27;20645;-72
2023/01/23 05:07:25;;;;;;;14.77;11.83;;;2.70;99.90;;;;;;5150151;27;20204;-72
2023/01/23 05:09:52;;;;;;;14.07;11.20;;;2.70;99.90;;;;;;5150047;27;20602;-72
2023/01/23 05:12:20;;;;;;;13.20;10.80;;;2.70;99.90;;;;;;5149923;27;20654;-72
2023/01/23 05:14:47;;;;;;;12.50;10.63;;;2.70;99.90;;;;;;5150440;27;20288;-72
2023/01/23 05:17:14;;;;;;;13.20;10.73;;;2.70;99.90;;;;;;5164115;27;20667;-72
2023/01/23 05:19:41;;;;;;;13.03;10.47;;;2.70;99.90;;;;;;5170780;27;20947;-73
2023/01/23 05:22:08;;;;;;;14.90;11.30;;;2.70;99.90;;;;;;5149373;27;20284;-72
2023/01/23 05:24:35;;;;;;;13.53;10.73;;;2.70;99.90;;;;;;5129108;27;20328;-73
2023/01/23 05:27:01;;;;;;;13.50;10.67;;;2.70;99.90;;;;;;5129398;27;20290;-72
2023/01/23 05:29:30;;;;;;;14.67;10.83;;;2.70;99.90;;;;;;5129027;27;20319;-72
2023/01/23 05:31:57;;;;;;;14.33;11.67;;;2.70;99.90;;;;;;5128916;27;20201;-72
2023/01/23 05:34:24;;;;;;;15.07;11.33;;;2.70;99.90;;;;;;5128656;27;20294;-72
2023/01/23 05:36:50;;;;;;;14.00;11.87;;;2.70;99.90;;;;;;5129882;27;20205;-72
2023/01/23 05:39:17;;;;;;;12.97;11.20;;;2.80;99.90;;;;;;5128878;27;20307;-72
2023/01/23 05:41:44;;;;;;;12.77;11.17;;;2.70;99.90;;;;;;5129278;27;20292;-72
2023/01/23 05:44:11;;;;;;;15.50;11.23;;;2.60;99.90;;;;;;5129114;27;20297;-73
2023/01/23 05:46:39;;;;;;;13.93;11.60;;;2.70;99.90;;;;;;5128650;27;20209;-73
2023/01/23 05:49:06;;;;;;;15.67;12.30;;;2.70;99.90;;;;;;5128704;27;20229;-72
2023/01/23 05:51:33;;;;;;;14.27;11.30;;;2.70;99.90;;;;;;5129093;27;20295;-72
2023/01/23 05:54:01;;;;;;;15.43;11.57;;;2.70;99.90;;;;;;5143144;27;20228;-72
2023/01/23 05:56:28;;;;;;;17.13;12.20;;;2.70;99.90;;;;;;5137996;27;20199;-72
2023/01/23 05:58:55;;;;;;;13.40;11.33;;;2.70;99.90;;;;;;5128714;27;20240;-72
2023/01/23 06:01:22;;;;;;;15.87;11.50;;;2.70;99.90;;;;;;5138555;27;20205;-72
2023/01/23 06:03:50;;;;;;;15.87;12.13;;;2.70;99.90;;;;;;5149385;27;20288;-72
2023/01/23 06:06:17;;;;;;;13.37;11.33;;;2.70;99.90;;;;;;5149118;27;20619;-72
2023/01/23 06:08:44;;;;;;;15.80;11.70;;;2.80;99.90;;;;;;5149359;27;20665;-72
2023/01/23 06:11:11;;;;;;;13.17;11.27;;;2.70;99.90;;;;;;5149571;27;21131;-72
2023/01/23 06:13:38;;;;;;;15.37;11.80;;;2.80;99.90;;;;;;5149082;27;20200;-72
2023/01/23 06:16:06;;;;;;;13.30;10.97;;;2.70;99.90;;;;;;5153781;27;20524;-72
2023/01/23 06:18:32;;;;;;;14.20;11.50;;;2.70;99.90;;;;;;5152886;27;20291;-72
2023/01/23 06:21:01;;;;;;;15.43;11.77;;;2.80;99.90;;;;;;5149574;27;20292;-72
2023/01/23 06:23:29;;;;;;;16.67;12.10;;;2.80;99.90;;;;;;5148787;27;20299;-72
2023/01/23 06:25:59;;;;;;;16.23;11.73;;;2.80;99.90;;;;;;5149529;27;20205;-72
2023/01/23 06:28:26;;;;;;;16.00;12.70;;;2.80;99.90;;;;;;5148920;27;20213;-72
2023/01/23 06:30:53;;;;;;;15.03;12.37;;;2.80;99.90;;;;;;5149118;27;20265;-72
2023/01/23 06:33:20;;;;;;;18.67;12.40;;;2.80;99.90;;;;;;5134488;27;20750;-73
2023/01/23 06:35:47;;;;;;;15.43;11.80;;;2.80;99.90;;;;;;5132422;27;20280;-72
2023/01/23 06:38:15;;;;;;;15.30;11.50;;;2.80;99.90;;;;;;5149565;27;20207;-72
2023/01/23 06:40:43;;;;;;;14.47;11.77;;;2.70;99.90;;;;;;5148746;27;20757;-72
2023/01/23 06:43:10;;;;;;;16.50;13.37;;;2.70;99.90;;;;;;5148737;27;20757;-72
2023/01/23 06:45:37;;;;;;;15.23;11.63;;;2.70;99.90;;;;;;5148839;27;20215;-72
2023/01/23 06:48:04;;;;;;;15.33;12.47;;;2.70;99.90;;;;;;5169368;27;20299;-72
2023/01/23 06:50:31;;;;;;;14.97;11.70;;;2.80;99.90;;;;;;5136266;27;20319;-72
2023/01/23 06:52:58;;;;;;;15.57;11.83;;;2.80;99.90;;;;;;5128318;28;20288;-72
2023/01/23 06:55:26;;;;;;;15.97;12.20;;;2.90;99.90;;;;;;5127879;28;20312;-72
2023/01/23 06:57:53;;;;;;;16.57;11.70;;;2.90;99.90;;;;;;5130200;27;20243;-72
2023/01/23 07:00:21;;;;;;;18.23;13.50;;;2.90;99.90;;;;;;5132110;27;20228;-72
2023/01/23 07:02:47;;;;;;;14.83;11.93;;;2.90;99.90;;;;;;5131828;27;20197;-72
2023/01/23 07:05:14;;;;;;;17.60;12.63;;;2.90;99.90;;;;;;5132251;27;20289;-72
2023/01/23 07:07:41;;;;;;;16.90;12.87;;;2.90;99.90;;;;;;5132217;27;20280;-72
2023/01/23 07:10:10;;;;;;;15.87;12.40;;;2.90;99.90;;;;;;5131737;27;20393;-72
2023/01/23 07:12:38;;;;;;;16.40;12.70;;;2.90;99.90;;;;;;5131501;27;20250;-72
2023/01/23 07:15:07;;;;;;;16.60;12.17;;;2.90;99.90;;;;;;5170397;27;20734;-72
2023/01/23 07:17:33;;;;;;;14.60;11.90;;;2.90;99.90;;;;;;5172976;27;20209;-73
2023/01/23 07:20:00;;;;;;;16.70;12.07;;;2.90;99.90;;;;;;5173385;27;20227;-73
2023/01/23 07:22:27;;;;;;;17.03;12.67;;;2.90;99.90;;;;;;5164109;27;20288;-73
2023/01/23 07:24:54;;;;;;;15.63;12.13;;;2.90;99.90;;;;;;5152570;27;20244;-73
2023/01/23 07:27:21;;;;;;;15.67;12.23;;;2.80;99.90;;;;;;5152475;27;20213;-73
2023/01/23 07:29:50;;;;;;;14.67;12.10;;;2.80;99.90;;;;;;5152227;27;20355;-73
2023/01/23 07:32:17;;;;;;;15.60;12.57;;;2.80;99.90;;;;;;5158186;27;20295;-73
2023/01/23 07:34:44;;;;;;;14.63;12.17;;;2.80;99.90;;;;;;5173349;27;20292;-73
2023/01/23 07:37:11;;;;;;;14.50;12.40;;;2.80;99.90;;;;;;5173397;27;20575;-72
2023/01/23 07:39:38;;;;;;;14.10;11.83;;;2.80;99.90;;;;;;5172970;27;20291;-72
2023/01/23 07:42:04;;;;;;;17.00;12.50;;;2.80;99.90;;;;;;5172946;27;20222;-73
2023/01/23 07:44:31;;;;;;;13.43;11.13;;;2.90;99.90;;;;;;5172753;27;20196;-72
2023/01/23 07:47:00;;;;;;;14.43;12.17;;;2.90;99.90;;;;;;5166128;27;20286;-72
2023/01/23 07:49:27;;;;;;;16.70;12.27;;;2.80;99.90;;;;;;5172272;27;20228;-73
2023/01/23 07:51:54;;;;;;;16.73;12.70;;;2.80;99.90;;;;;;5173129;27;20208;-72
2023/01/23 07:54:21;;;;;;;15.57;12.27;;;2.80;99.90;;;;;;5158102;27;20216;-72
2023/01/23 07:56:49;;;;;;;15.07;13.07;;;2.90;99.90;;;;;;5151527;27;20235;-72
2023/01/23 07:59:16;;;;;;;15.10;12.60;;;2.90;99.90;;;;;;5151128;27;20714;-72
2023/01/23 08:01:43;;;;;;;15.13;12.00;;;2.90;99.90;;;;;;5151815;27;20295;-72
2023/01/23 08:04:11;;;;;;;16.70;12.60;;;2.90;99.90;;;;;;5151219;27;20201;-73
2023/01/23 08:06:38;;;;;;;14.73;12.40;;;2.90;99.90;;;;;;5151357;27;20201;-73
2023/01/23 08:09:05;;;;;;;17.30;12.77;;;2.90;99.90;;;;;;5150800;27;20730;-72
2023/01/23 08:11:32;;;;;;;14.10;12.13;;;2.90;99.90;;;;;;5151165;27;20201;-73
2023/01/23 08:13:59;;;;;;;15.20;12.00;;;2.90;99.90;;;;;;5151685;27;20239;-73
2023/01/23 08:16:26;;;;;;;15.93;12.13;;;2.90;99.90;;;;;;5158656;27;20291;-72
2023/01/23 08:18:53;;;;;;;15.03;12.63;;;2.90;99.90;;;;;;5171986;27;20207;-73
2023/01/23 08:21:21;;;;;;;14.47;12.13;;;2.90;99.90;;;;;;5172232;27;20228;-72
2023/01/23 08:23:48;;;;;;;17.17;13.53;;;2.90;99.90;;;;;;5143052;27;20283;-73
2023/01/23 08:26:17;;;;;;;16.63;12.80;;;2.90;99.90;;;;;;5151493;27;20244;-73
2023/01/23 08:28:45;;;;;;;16.50;13.17;;;2.90;99.90;;;;;;5151515;27;20300;-73
2023/01/23 08:31:12;;;;;;;18.13;13.67;;;2.90;99.90;;;;;;5151078;27;20228;-73
2023/01/23 08:33:40;;;;;;;15.63;12.87;;;2.90;99.90;;;;;;5151145;27;20537;-73
2023/01/23 08:36:08;;;;;;;16.80;12.73;;;2.90;99.90;;;;;;5151373;27;20251;-73
2023/01/23 08:38:37;;;;;;;16.17;13.43;;;2.90;99.90;;;;;;5151181;27;20208;-73
2023/01/23 08:41:04;;;;;;;16.97;13.20;;;2.90;99.90;;;;;;5151024;27;20291;-73
2023/01/23 08:43:32;;;;;;;18.53;13.70;;;2.90;99.90;;;;;;5130284;27;20293;-73
2023/01/23 08:45:59;;;;;;;16.13;13.07;;;2.90;99.90;;;;;;5134072;27;20262;-73
2023/01/23 08:48:27;;;;;;;16.37;12.97;;;2.90;99.90;;;;;;5150582;27;20228;-73
2023/01/23 08:51:01;;;;;;;18.67;13.67;;;2.90;99.90;;;;;;5151165;27;20268;-73
2023/01/23 08:53:28;;;;;;;16.67;13.47;;;2.90;99.90;;;;;;5150113;27;20193;-73
2023/01/23 08:56:00;;;;;;;17.00;13.43;;;2.90;99.90;;;;;;5143694;27;20217;-73
2023/01/23 08:58:27;;;;;;;20.47;13.30;;;2.90;99.90;;;;;;5129539;27;20233;-73
2023/01/23 09:00:54;;;;;;;18.07;13.77;;;3.00;99.90;;;;;;5129885;27;20762;-73
2023/01/23 09:03:21;;;;;;;19.03;13.97;;;2.90;99.90;;;;;;5129556;27;20389;-73
2023/01/23 09:05:48;;;;;;;15.37;13.50;;;3.00;99.90;;;;;;5129882;27;20332;-73
2023/01/23 09:08:15;;;;;;;19.30;14.30;;;2.90;99.90;;;;;;5130144;27;20196;-73
2023/01/23 09:10:42;;;;;;;18.63;13.53;;;2.90;99.90;;;;;;5129311;27;20228;-73
2023/01/23 09:13:10;;;;;;;15.30;12.27;;;2.90;99.90;;;;;;5129867;27;20209;-73
2023/01/23 09:15:39;;;;;;;17.03;13.10;;;2.90;99.90;;;;;;5130160;27;20703;-73
2023/01/23 09:18:06;;;;;;;16.83;13.33;;;3.00;99.90;;;;;;5171225;27;20208;-73
2023/01/23 09:20:33;;;;;;;17.47;13.37;;;3.00;99.90;;;;;;5152552;27;20292;-73
2023/01/23 09:23:00;;;;;;;17.50;13.40;;;3.00;99.90;;;;;;5143064;27;20706;-73
2023/01/23 09:25:29;;;;;;;15.67;12.57;;;3.00;99.90;;;;;;5161096;27;20713;-73
2023/01/23 09:27:56;;;;;;;19.60;13.13;;;3.00;99.90;;;;;;5171242;27;20208;-73
2023/01/23 09:30:24;;;;;;;14.20;12.50;;;3.00;99.90;;;;;;5170911;27;20327;-73
2023/01/23 09:32:51;;;;;;;18.00;13.27;;;3.00;99.90;;;;;;5170188;27;20314;-73
2023/01/23 09:35:18;;;;;;;17.80;13.27;;;3.00;99.90;;;;;;5170283;27;20247;-73
2023/01/23 09:38:00;;;;;;;16.33;12.60;;;3.00;99.90;;;;;;5163383;27;20240;-73
2023/01/23 09:40:29;;;;;;;17.57;12.47;;;3.00;99.90;;;;;;5129049;27;20212;-73
2023/01/23 09:43:01;;;;;;;14.90;12.50;;;3.00;99.90;;;;;;5128673;27;20577;-73
2023/01/23 09:45:31;;;;;;;16.40;12.87;;;3.00;99.90;;;;;;5129066;27;20221;-73
2023/01/23 09:48:08;;;;;;;16.03;13.23;;;3.00;99.90;;;;;;5128825;27;20300;-73
2023/01/23 09:50:40;;;;;;;21.00;13.17;;;3.00;99.90;;;;;;5128483;27;20225;-73
2023/01/23 09:53:12;;;;;;;16.83;13.17;;;3.00;99.90;;;;;;5128790;27;20296;-73
2023/01/23 09:55:42;;;;;;;17.83;13.40;;;3.00;99.90;;;;;;5128343;27;20300;-73
2023/01/23 09:58:18;;;;;;;12.97;11.57;;;3.00;99.90;;;;;;5128686;27;20730;-73
2023/01/23 10:00:47;;;;;;;17.43;12.87;;;3.00;99.90;;;;;;5129300;27;20217;-73
2023/01/23 10:03:15;;;;;;;15.87;12.40;;;3.10;99.90;;;;;;5128707;27;20584;-73
2023/01/23 10:06:00;;;;;;;16.00;12.80;;;3.10;99.90;;;;;;5129040;27;20209;-73
2023/01/23 10:08:33;;;;;;;13.57;11.43;;;3.10;99.90;;;;;;5128422;27;20280;-73
2023/01/23 10:11:06;;;;;;;13.87;11.60;;;3.10;99.90;;;;;;5128560;27;20311;-73
2023/01/23 10:13:42;;;;;;;15.47;12.77;;;3.10;99.90;;;;;;5128809;28;20284;-73
2023/01/23 10:16:38;;;;;;;14.00;11.90;;;3.20;99.90;;;;;;5139805;27;20200;-73
2023/01/23 10:19:18;;;;;;;16.83;12.43;;;3.20;99.90;;;;;;5117907;27;20216;-73
2023/01/23 10:21:51;;;;;;;16.67;12.40;;;3.20;99.90;;;;;;5140166;27;20235;-73
2023/01/23 10:24:31;;;;;;;16.97;12.77;;;3.30;99.90;;;;;;5149167;27;20280;-73
2023/01/23 10:27:09;;;;;;;14.93;12.70;;;3.30;99.90;;;;;;5149244;27;20221;-73
2023/01/23 10:29:42;;;;;;;15.47;12.30;;;3.30;99.90;;;;;;5148876;27;20228;-73
2023/01/23 10:32:22;;;;;;;14.63;11.77;;;3.30;99.90;;;;;;5152354;27;20279;-73
2023/01/23 10:34:55;;;;;;;15.23;12.87;;;3.30;99.90;;;;;;5143018;27;20607;-73
2023/01/23 10:37:35;;;;;;;17.67;13.47;;;3.30;99.90;;;;;;5132663;27;21069;-73
2023/01/23 10:40:06;;;;;;;14.80;12.37;;;3.30;99.90;;;;;;5132629;27;20276;-73
2023/01/23 10:42:34;;;;;;;15.20;12.77;;;3.30;99.90;;;;;;5132655;27;20204;-73
2023/01/23 10:45:00;;;;;;;17.47;13.00;;;3.30;99.90;;;;;;5132655;27;20225;-73
2023/01/23 10:47:33;;;;;;;16.03;12.67;;;3.30;99.90;;;;;;5132137;27;20213;-73
2023/01/23 10:50:02;;;;;;;16.80;12.73;;;3.30;99.90;;;;;;5132410;27;20247;-73
2023/01/23 10:52:33;;;;;;;17.83;12.77;;;3.30;99.90;;;;;;5132495;27;20289;-73
2023/01/23 10:55:00;;;;;;;16.23;12.80;;;3.30;99.90;;;;;;5132396;27;20316;-73
2023/01/23 10:57:29;;;;;;;16.50;12.47;;;3.30;99.90;;;;;;5131877;27;20225;-73
2023/01/23 11:00:00;;;;;;;14.33;12.73;;;3.30;99.90;;;;;;5132373;27;20293;-73
2023/01/23 11:02:28;;;;;;;15.03;12.43;;;3.30;99.90;;;;;;5132333;27;20244;-73
2023/01/23 11:04:55;;;;;;;15.17;12.60;;;3.30;99.90;;;;;;5132354;27;20624;-73
2023/01/23 11:07:26;;;;;;;17.57;12.13;;;3.30;99.90;;;;;;5131968;27;20209;-73
2023/01/23 11:09:55;;;;;;;15.17;12.40;;;3.30;99.90;;;;;;5131889;27;20703;-73
2023/01/23 11:12:24;;;;;;;14.73;12.67;;;3.40;99.90;;;;;;5131911;27;20649;-73
2023/01/23 11:14:52;;;;;;;14.40;12.60;;;3.30;99.90;;;;;;5131772;27;20205;-73
2023/01/23 11:17:22;;;;;;;17.37;13.10;;;3.30;99.90;;;;;;5155347;27;20244;-73
2023/01/23 11:19:53;;;;;;;15.60;13.50;;;3.30;99.90;;;;;;5152685;27;20231;-73
2023/01/23 11:22:32;;;;;;;15.07;12.73;;;3.30;99.90;;;;;;5152591;27;20287;-73
2023/01/23 11:25:00;;;;;;;17.00;12.73;;;3.30;99.90;;;;;;5152233;27;20858;-73
2023/01/23 11:27:29;;;;;;;19.27;13.13;;;3.40;99.90;;;;;;5152159;27;20954;-73
2023/01/23 11:30:33;;;;;;;17.53;13.57;;;3.30;99.90;;;;;;5151476;27;20253;-73
2023/01/23 11:33:08;;;;;;;18.23;12.50;;;3.40;99.90;;;;;;5047563;28;20689;-73
2023/01/23 11:35:50;;;;;;;17.20;13.17;;;3.40;99.90;;;;;;5116334;27;20730;-73
2023/01/23 11:38:25;;;;;;;15.77;13.37;;;3.40;99.90;;;;;;5131229;27;20280;-73
2023/01/23 11:40:52;;;;;;;16.83;12.80;;;3.40;99.90;;;;;;5131441;27;20235;-73
2023/01/23 11:43:19;;;;;;;16.77;13.53;;;3.40;99.90;;;;;;5130405;27;20285;-73
2023/01/23 11:46:02;;;;;;;16.73;13.07;;;3.40;99.90;;;;;;5134664;27;20205;-73
2023/01/23 11:48:48;;;;;;;15.97;13.17;;;3.40;99.90;;;;;;5172830;27;20227;-73
2023/01/23 11:51:20;;;;;;;14.77;12.57;;;3.40;99.90;;;;;;5172904;27;20219;-73
2023/01/23 11:54:00;;;;;;;14.93;12.67;;;3.40;99.90;;;;;;5172543;27;20203;-73
2023/01/23 11:56:45;;;;;;;14.80;11.77;;;3.40;99.90;;;;;;5141354;27;20685;-73
2023/01/23 11:59:32;;;;;;;16.17;12.00;;;3.40;99.90;;;;;;5130693;27;20321;-74
2023/01/23 12:02:21;;;;;;;14.33;11.73;;;3.40;99.90;;;;;;5130911;27;20614;-73
2023/01/23 12:05:07;;;;;;;13.83;12.23;;;3.40;99.90;;;;;;5130915;27;20225;-73
2023/01/23 12:07:40;;;;;;;13.83;12.03;;;3.40;99.90;;;;;;5132715;27;20193;-73
2023/01/23 12:10:17;;;;;;;15.83;12.23;;;3.40;99.90;;;;;;5143586;27;20296;-73
2023/01/23 12:12:59;;;;;;;14.30;11.43;;;3.40;99.90;;;;;;5130893;27;20658;-73
2023/01/23 12:15:36;;;;;;;15.03;12.70;;;3.40;99.90;;;;;;5130900;27;20621;-74
2023/01/23 12:18:15;;;;;;;15.30;12.57;;;3.40;99.90;;;;;;5130623;27;20193;-73
2023/01/23 12:20:51;;;;;;;16.17;12.60;;;3.40;99.90;;;;;;5130982;27;20197;-74
2023/01/23 12:23:48;;;;;;;14.50;12.40;;;3.40;99.90;;;;;;5130477;27;20213;-73
2023/01/23 12:26:19;;;;;;;16.83;12.50;;;3.40;99.90;;;;;;5129208;27;20237;-73
2023/01/23 12:29:13;;;;;;;15.93;12.90;;;3.40;99.90;;;;;;5151618;27;20189;-73
2023/01/23 12:32:01;;;;;;;14.87;12.00;;;3.50;99.90;;;;;;5151115;27;20269;-73
2023/01/23 12:34:44;;;;;;;15.70;12.70;;;3.50;99.90;;;;;;5151029;27;20209;-73
2023/01/23 12:37:30;;;;;;;15.13;12.63;;;3.50;99.90;;;;;;5150968;27;20561;-73
2023/01/23 12:40:11;;;;;;;16.80;12.20;;;3.50;99.90;;;;;;5151474;27;20195;-73
2023/01/23 12:42:46;;;;;;;16.23;13.20;;;3.50;99.90;;;;;;5150409;27;20295;-73
2023/01/23 12:45:20;;;;;;;19.53;12.00;;;3.50;99.90;;;;;;5150757;27;20275;-73
2023/01/23 12:47:53;;;;;;;15.00;12.13;;;3.50;99.90;;;;;;5168756;27;20323;-73
2023/01/23 12:50:24;;;;;;;17.23;12.90;;;3.50;99.90;;;;;;5171205;27;20193;-73
2023/01/23 12:52:55;;;;;;;15.47;12.27;;;3.50;99.90;;;;;;5130140;27;20196;-73
2023/01/23 12:55:26;;;;;;;14.27;12.13;;;3.50;99.90;;;;;;5129553;27;20312;-73
2023/01/23 12:57:57;;;;;;;13.73;11.53;;;3.50;99.90;;;;;;5129894;27;20600;-73
2023/01/23 13:00:40;;;;;;;15.37;11.70;;;3.50;99.90;;;;;;5129961;27;20289;-73